This is the latest recevied weather packets stored in our database for station/object AG1T-20. If no packets are shown the sender has not sent any weather packets the latest 10 day(s).
| Time | Temp. | Humidity | Pressure | Rain* | Wind** | Luminosity | Snow |
|---|---|---|---|---|---|---|---|
| 1777404604 | 9.44° C | 55% | 1022.6 hPa | 0 mm | - | 418 W/m² | - |
| 1777404004 | 10° C | - | - | 0 mm | - | 105 W/m² | - |
| 1777403405 | 8.33° C | 58% | 1022.6 hPa | 0 mm | - | 348 W/m² | - |
| 1777402804 | 7.22° C | 61% | 1022.6 hPa | 0 mm | - | 279 W/m² | - |
| 1777402204 | 8.33° C | 55% | 1022.1 hPa | 0 mm | - | 150 W/m² | - |
| 1777401604 | 8.89° C | 52% | 1022.1 hPa | 0 mm | - | 175 W/m² | - |
| 1777401004 | 10° C | 46% | 1022.1 hPa | 0 mm | - | 218 W/m² | - |
| 1777400404 | 9.44° C | 45% | 1022.1 hPa | 0 mm | - | 294 W/m² | - |
| 1777399804 | 10.56° C | 44% | 1022.1 hPa | 0 mm | - | 937 W/m² | - |
| 1777399204 | 10° C | 45% | 1022.1 hPa | 0 mm | - | 345 W/m² | - |
| 1777398604 | 11.11° C | 46% | 1022.3 hPa | 0 mm | - | 399 W/m² | - |
| 1777398004 | 11.11° C | - | - | 0 mm | - | 109 W/m² | - |
| 1777397405 | 10° C | - | - | 0 mm | - | 120 W/m² | - |
| 1777396805 | 10° C | - | - | 0 mm | - | 111 W/m² | - |
| 1777396205 | 10° C | 50% | 1022.3 hPa | 0 mm | - | 953 W/m² | - |
| 1777395605 | 9.44° C | - | - | 0 mm | - | 111 W/m² | - |
| 1777395005 | 8.33° C | 55% | 1022.2 hPa | 0 mm | - | 235 W/m² | - |
| 1777394405 | 8.89° C | - | - | 0 mm | - | 108 W/m² | - |
| 1777393805 | 9.44° C | - | - | 0 mm | - | 102 W/m² | - |
| 1777393205 | 9.44° C | 55% | 1022.2 hPa | 0 mm | - | 985 W/m² | - |
| 1777392605 | 8.89° C | 61% | 1022.2 hPa | 0 mm | - | 909 W/m² | - |
| 1777392005 | 8.89° C | 60% | 1022.2 hPa | 0 mm | - | 869 W/m² | - |
| 1777391405 | 8.33° C | 60% | 1022.1 hPa | 0 mm | - | 835 W/m² | - |
| 1777390805 | 7.78° C | 65% | 1022.1 hPa | 0 mm | - | 812 W/m² | - |
| 1777390205 | 7.78° C | 65% | 1022.1 hPa | 0 mm | - | 793 W/m² | - |
* Rain latest hour (hover to see other rain measurements)
** Current wind speed in m/s (hover to see current wind gust speed)